M I D A S
Marine Information and Data Acquisition System
Tripno 2285 of the Zeeleeuw from 2012-04-05 06:32:25 to 2012-04-05 14:15:10
Back to CruiseResearch ActivitiesStationsMapUnderway DataData graphs

EquipmentUnitsComment
TimeDGPSUTC
LatitudeDGPSDM.mWGS84
LongitudeDGPSDM.mWGS84
HeadingGyrodeg 
SOGDGPSknotsSpeed over ground
COGDGPSdegCourse over ground
DepthEcho soundermeters200 kHz
Missing or incorrect values are displayed as -999
Navigation data collected by the RV Zeeleeuw from 2012-04-05 06:34:02 to 2012-04-05 14:26:06
Time Latitude Longitude Heading SOG COG Depth
2012-04-05 06:35:07 51°13.636 2°56.017 115.8 0.1 235 -999
2012-04-05 06:36:07 51°13.635 2°56.013 103.2 1 283 -999
2012-04-05 06:37:07 51°13.651 2°55.923 111.2 4.5 289 -999
2012-04-05 06:38:07 51°13.691 2°55.809 130.9 5.2 309 -999
2012-04-05 06:39:07 51°13.753 2°55.706 139.6 5.5 317 -999
2012-04-05 06:40:07 51°13.83 2°55.629 160.9 5.4 339 -999
2012-04-05 06:41:07 51°13.907 2°55.603 182 4.1 357 -999
2012-04-05 06:42:07 51°13.962 2°55.621 216.9 2.8 28 -999
2012-04-05 06:43:07 51°13.982 2°55.634 256.1 1.5 274 9.5
2012-04-05 06:44:07 51°14.021 2°55.545 315.7 6.5 317 -999
2012-04-05 06:45:07 51°14.129 2°55.424 329.5 8.6 328 -999
2012-04-05 06:46:07 51°14.256 2°55.302 331.7 9.4 328 -999
2012-04-05 06:47:07 51°14.394 2°55.162 327.2 9.9 326 9.8
2012-04-05 06:48:07 51°14.535 2°55.007 327.9 11 317 10.2
2012-04-05 06:49:06 51°14.674 2°54.801 326 11.9 319 10.6
2012-04-05 06:50:06 51°14.829 2°54.606 332 11.6 326 9.9
2012-04-05 06:51:06 51°14.983 2°54.42 330.9 11.5 321 10.3
2012-04-05 06:52:06 51°15.135 2°54.228 328.3 11.8 323 10
2012-04-05 06:53:06 51°15.288 2°54.032 329.6 11.9 321 10.1
2012-04-05 06:54:06 51°15.444 2°53.839 329.9 11.8 321 10.3
2012-04-05 06:55:06 51°15.608 2°53.67 338.1 11.7 333 10.8
2012-04-05 06:56:06 51°15.778 2°53.528 339.2 11.5 331 11.3
2012-04-05 06:57:06 51°15.946 2°53.397 343.8 11.2 332 11.5
2012-04-05 06:58:05 51°16.112 2°53.264 344.7 11.3 335 11.4
2012-04-05 06:59:05 51°16.286 2°53.144 342.2 11.5 330 11.8
2012-04-05 07:00:05 51°16.456 2°53.011 345.4 11.2 336 11.4
2012-04-05 07:01:05 51°16.626 2°52.893 345.6 11.2 337 11.1
2012-04-05 07:02:05 51°16.795 2°52.77 342.4 11.1 335 9.2
2012-04-05 07:03:05 51°16.967 2°52.665 348.5 11 342 9.4
2012-04-05 07:04:05 51°17.139 2°52.579 352.1 10.9 346 9
2012-04-05 07:05:05 51°17.318 2°52.532 1.3 10.9 353 9.9
2012-04-05 07:06:05 51°17.496 2°52.498 4.1 10.7 359 10.1
2012-04-05 07:07:05 51°17.672 2°52.506 8.7 10.7 -999 9.8
2012-04-05 07:08:05 51°17.844 2°52.527 10.8 10.3 4 10.2
2012-04-05 07:09:04 51°18.014 2°52.56 16.7 10.4 13 10.1
2012-04-05 07:10:04 51°18.176 2°52.645 27.1 10.4 25 10.7
2012-04-05 07:11:04 51°18.315 2°52.806 44.8 10.3 43 10.9
2012-04-05 07:12:04 51°18.428 2°53.01 53.1 10.4 51 10.4
2012-04-05 07:13:04 51°18.532 2°53.234 55.2 10.4 53 10.5
2012-04-05 07:14:04 51°18.642 2°53.449 49.5 10.3 48 11.3
2012-04-05 07:15:04 51°18.757 2°53.652 48.7 10.1 45 11
2012-04-05 07:16:04 51°18.874 2°53.855 49.2 10.5 48 11.3
2012-04-05 07:17:04 51°18.99 2°54.065 49.6 10.6 47 11.3
2012-04-05 07:18:04 51°19.114 2°54.264 45.9 10.5 45 11.6
2012-04-05 07:19:04 51°19.22 2°54.485 55 10.5 56 12
2012-04-05 07:20:04 51°19.324 2°54.705 53.9 10.2 54 12
2012-04-05 07:21:04 51°19.432 2°54.92 52 10.4 50 11.4
2012-04-05 07:22:04 51°19.537 2°55.131 53.4 10.4 51 12
2012-04-05 07:23:04 51°19.646 2°55.339 51.2 10.3 48 11.5
2012-04-05 07:24:04 51°19.754 2°55.548 52.8 10.1 53 12.1
2012-04-05 07:25:04 51°19.858 2°55.766 55.5 10.4 53 11.7
2012-04-05 07:26:04 51°19.965 2°55.984 52.3 10.4 50 11.5
2012-04-05 07:27:03 51°20.074 2°56.196 53.8 10.7 54 11.8
2012-04-05 07:28:04 51°20.171 2°56.436 57.6 10.7 59 12.4
2012-04-05 07:29:04 51°20.268 2°56.672 54.7 10.7 54 12.1
2012-04-05 07:30:04 51°20.368 2°56.91 57.1 10.8 55 11.7
2012-04-05 07:31:04 51°20.472 2°57.137 54.4 10.6 54 11.8
2012-04-05 07:32:04 51°20.578 2°57.363 53.8 10.7 51 11.8
2012-04-05 07:33:04 51°20.686 2°57.585 53.1 10.6 52 12.3
2012-04-05 07:34:04 51°20.789 2°57.812 56 10.4 58 11.4
2012-04-05 07:35:04 51°20.883 2°58.044 56.7 10.4 55 12.1
2012-04-05 07:36:04 51°20.98 2°58.272 57.6 10.4 59 11.6
2012-04-05 07:37:04 51°21.083 2°58.492 51.9 10.4 50 11.7
2012-04-05 07:38:04 51°21.188 2°58.697 51.1 8.4 52 11.9
2012-04-05 07:39:04 51°21.244 2°58.837 56.7 4.1 65 11.9
2012-04-05 07:40:04 51°21.266 2°58.903 48.4 2 58 11.7
2012-04-05 07:41:04 51°21.287 2°58.931 40.2 2.1 33 11.4
2012-04-05 07:42:04 51°21.317 2°58.988 37.7 3 33 11.6
2012-04-05 07:43:03 51°21.344 2°59.003 33.2 0.6 10 11.6
2012-04-05 07:44:04 51°21.343 2°58.995 41.5 0.8 210 12.4
2012-04-05 07:45:04 51°21.328 2°58.983 59.4 1.2 199 12.1
2012-04-05 07:46:05 51°21.312 2°58.994 77.8 2.5 89 12
2012-04-05 07:47:05 51°21.369 2°59.052 25.6 5.9 20 12.2
2012-04-05 07:48:05 51°21.467 2°59.135 33.4 7.3 28 11.4
2012-04-05 07:49:05 51°21.582 2°59.231 32 7.9 28 12.1
2012-04-05 07:50:05 51°21.694 2°59.328 33.3 7.9 30 12.1
2012-04-05 07:51:05 51°21.805 2°59.436 35.9 7.7 33 11.7
2012-04-05 07:52:05 51°21.915 2°59.537 30.6 7.5 26 11.9
2012-04-05 07:53:05 51°21.995 2°59.59 28.1 3 19 12.1
2012-04-05 07:54:05 51°22.013 2°59.592 35.7 0.3 294 11.7
2012-04-05 07:55:05 51°22.009 2°59.58 41.8 0.9 244 11.7
2012-04-05 07:56:05 51°22 2°59.563 40.4 0.8 221 12
2012-04-05 07:57:04 51°22.053 2°59.575 359.6 6.3 343 12.4
2012-04-05 07:58:04 51°22.18 2°59.534 359.4 8.6 351 13
2012-04-05 07:59:04 51°22.322 2°59.523 11.8 8.5 6 13.5
2012-04-05 08:00:04 51°22.461 2°59.567 19.5 8.3 14 13.5
2012-04-05 08:01:04 51°22.591 2°59.627 21.5 6.6 15 14
2012-04-05 08:02:04 51°22.663 2°59.643 25.5 2.6 20 14.9
2012-04-05 08:03:04 51°22.672 2°59.651 53.1 0.4 176 14.5
2012-04-05 08:04:03 51°22.659 2°59.65 68.6 1.1 185 15
2012-04-05 08:05:04 51°22.637 2°59.646 81.7 1.4 161 14.2
2012-04-05 08:06:03 51°22.62 2°59.762 84.2 7.1 95 14.5
2012-04-05 08:07:04 51°22.624 2°59.976 80.4 8.5 87 13.5
2012-04-05 08:08:03 51°22.625 3°0.2 84.3 8.7 91 13.1
2012-04-05 08:09:04 51°22.629 3°0.435 79.9 8.9 89 13.2
2012-04-05 08:10:04 51°22.645 3°0.665 77.7 8.8 83 12.6
2012-04-05 08:11:03 51°22.658 3°0.879 78.4 6.2 84 11.7
2012-04-05 08:12:04 51°22.67 3°0.979 57.4 1.5 91 12.1
2012-04-05 08:13:03 51°22.665 3°0.994 37.1 0.4 174 12.3
2012-04-05 08:14:04 51°22.656 3°0.987 18.2 0.9 206 11.5
2012-04-05 08:15:03 51°22.675 3°0.973 7.3 4 358 11.9
2012-04-05 08:16:04 51°22.766 3°1.028 24.9 7.2 22 11.7
2012-04-05 08:17:03 51°22.894 3°1.112 27.8 9 27 12.9
2012-04-05 08:18:04 51°23.032 3°1.222 28.8 9.2 29 13.6
2012-04-05 08:19:03 51°23.152 3°1.361 41.4 8.9 43 12.7
2012-04-05 08:20:03 51°23.25 3°1.511 32.7 6.5 32 13.2
2012-04-05 08:21:04 51°23.304 3°1.586 37.2 2.7 40 13.6
2012-04-05 08:22:04 51°23.333 3°1.612 34.7 1.4 42 14.1
2012-04-05 08:23:04 51°23.332 3°1.619 58 0.8 149 14.1
2012-04-05 08:24:04 51°23.32 3°1.627 75.8 0.9 160 13.8
2012-04-05 08:25:03 51°23.307 3°1.678 82.4 5.7 93 13.8
2012-04-05 08:26:04 51°23.319 3°1.914 80.7 10.4 82 12.7
2012-04-05 08:27:03 51°23.337 3°2.197 83.8 11.2 85 13.2
2012-04-05 08:28:04 51°23.342 3°2.505 85.2 11.4 87 13.4
2012-04-05 08:29:03 51°23.345 3°2.807 85.7 11.6 84 11.3
2012-04-05 08:30:04 51°23.352 3°3.116 88.8 11.5 88 13.5
2012-04-05 08:31:04 51°23.353 3°3.413 86.7 10.2 94 10.5
2012-04-05 08:32:04 51°23.328 3°3.608 80 4.8 91 13.5
2012-04-05 08:33:04 51°23.321 3°3.652 69.8 1.1 139 13.3
2012-04-05 08:34:03 51°23.307 3°3.664 71.9 1 157 13.1
2012-04-05 08:35:04 51°23.29 3°3.675 80.6 1.6 133 13.6
2012-04-05 08:36:04 51°23.292 3°3.829 79 9 84 12.6
2012-04-05 08:37:03 51°23.314 3°4.109 81.8 11.4 87 11
2012-04-05 08:38:04 51°23.303 3°4.424 94 11.8 100 12.9
2012-04-05 08:39:04 51°23.304 3°4.733 80.3 11.6 83 12.3
2012-04-05 08:40:04 51°23.337 3°5.039 77.3 11.7 80 13.1
2012-04-05 08:41:04 51°23.357 3°5.324 82.2 8.9 89 13
2012-04-05 08:42:04 51°23.348 3°5.502 92.7 5.7 104 13
2012-04-05 08:43:04 51°23.334 3°5.609 85.9 2.4 111 13.2
2012-04-05 08:44:04 51°23.315 3°5.624 89.8 1.5 174 12.9
2012-04-05 08:45:07 51°23.292 3°5.625 120.7 1.3 175 13.2
2012-04-05 08:46:07 51°23.263 3°5.646 121.5 3.1 139 12.7
2012-04-05 08:47:07 51°23.258 3°5.745 67.4 5 73 13.1
2012-04-05 08:48:07 51°23.297 3°5.913 63.2 8 66 13
2012-04-05 08:49:06 51°23.329 3°6.138 77 9.3 82 12.7
2012-04-05 08:50:06 51°23.35 3°6.34 72.2 4.5 81 13.2
2012-04-05 08:51:06 51°23.344 3°6.379 38.6 1 152 12.9
2012-04-05 08:52:07 51°23.329 3°6.383 2.2 1.1 173 4.9
2012-04-05 08:53:07 51°23.311 3°6.385 342.5 1 167 13.2
2012-04-05 08:54:07 51°23.306 3°6.38 342.3 1.7 347 13.4
2012-04-05 08:55:07 51°23.343 3°6.44 62 5.2 73 13.5
2012-04-05 08:56:07 51°23.356 3°6.621 78.2 7.6 83 13.5
2012-04-05 08:57:07 51°23.336 3°6.807 94.9 5.4 101 13.2
2012-04-05 08:58:06 51°23.326 3°6.879 84.2 1.1 163 12.9
2012-04-05 08:59:07 51°23.309 3°6.886 92.9 0.6 166 -999
2012-04-05 09:00:07 51°23.292 3°6.888 108.3 0.9 179 12.8
2012-04-05 09:01:07 51°23.276 3°6.891 130.5 1.2 188 13
2012-04-05 09:02:07 51°23.26 3°6.894 150.5 1 179 13.2
2012-04-05 09:03:06 51°23.234 3°6.911 143.3 2.9 147 12.9
2012-04-05 09:04:06 51°23.21 3°6.991 84.1 3.8 90 13.2
2012-04-05 09:05:06 51°23.248 3°7.134 58.6 8 63 13
2012-04-05 09:06:06 51°23.309 3°7.352 67.1 9.4 72 13.2
2012-04-05 09:07:06 51°23.345 3°7.509 60.2 4.1 68 13.3
2012-04-05 09:08:06 51°23.354 3°7.572 63.6 0.9 138 13.8
2012-04-05 09:09:07 51°23.342 3°7.58 80.4 0.9 164 -999
2012-04-05 09:10:07 51°23.327 3°7.581 101.7 1 182 13.3
2012-04-05 09:11:07 51°23.306 3°7.614 114 4 115 13.7
2012-04-05 09:12:07 51°23.299 3°7.782 81 7.9 87 12.8
2012-04-05 09:13:07 51°23.323 3°7.981 80.1 6.9 85 13.7
2012-04-05 09:14:06 51°23.333 3°8.136 75.4 4.8 85 13.2
2012-04-05 09:15:06 51°23.329 3°8.186 86.6 0.7 168 14
2012-04-05 09:16:07 51°23.317 3°8.191 114 0.6 142 -999
2012-04-05 09:17:07 51°23.305 3°8.2 128.9 0.9 149 13.6
2012-04-05 09:18:07 51°23.266 3°8.238 166.3 3.7 164 13
2012-04-05 09:19:07 51°23.205 3°8.216 227.9 4.1 222 13.1
2012-04-05 09:20:06 51°23.163 3°8.094 249.4 6.6 240 13.1
2012-04-05 09:21:06 51°23.102 3°7.932 243.7 7.3 237 13.2
2012-04-05 09:22:06 51°23.031 3°7.769 241.9 7.6 232 12.8
2012-04-05 09:23:06 51°22.965 3°7.601 245.2 7.5 238 13.4
2012-04-05 09:24:06 51°22.902 3°7.43 245.2 7.5 238 12.9
2012-04-05 09:25:06 51°22.832 3°7.265 243.3 7.5 232 13.9
2012-04-05 09:26:06 51°22.76 3°7.107 241.8 7.3 234 13.9
2012-04-05 09:27:05 51°22.693 3°6.951 243.7 7.2 237 14.2
2012-04-05 09:28:05 51°22.626 3°6.792 243.6 7.3 234 13.5
2012-04-05 09:29:05 51°22.559 3°6.63 243.5 7.3 237 14.3
2012-04-05 09:30:05 51°22.492 3°6.47 242.4 7.2 239 13.8
2012-04-05 09:31:05 51°22.42 3°6.312 242.6 7.5 229 13.8
2012-04-05 09:32:05 51°22.352 3°6.15 242.9 7.3 238 13.7
2012-04-05 09:33:05 51°22.287 3°5.985 244.8 7.3 239 13.7
2012-04-05 09:34:05 51°22.222 3°5.82 245.1 7.4 234 14.3
2012-04-05 09:35:05 51°22.155 3°5.659 244.5 7.2 232 13.7
2012-04-05 09:36:05 51°22.088 3°5.501 242.6 7.2 236 13.7
2012-04-05 09:37:05 51°22.023 3°5.341 242.5 7.1 240 13.5
2012-04-05 09:38:05 51°21.956 3°5.182 243.3 7.1 238 13.4
2012-04-05 09:39:04 51°21.897 3°5.022 246.4 7.1 240 13.5
2012-04-05 09:40:05 51°21.834 3°4.857 242.8 7.1 243 13.6
2012-04-05 09:41:04 51°21.769 3°4.703 242.1 7 236 13.7
2012-04-05 09:42:04 51°21.703 3°4.547 242.5 7.2 234 13.6
2012-04-05 09:43:04 51°21.641 3°4.387 243.7 7 243 13.3
2012-04-05 09:44:04 51°21.576 3°4.229 241.3 7.1 239 13.1
2012-04-05 09:45:04 51°21.508 3°4.076 242 7 233 13.3
2012-04-05 09:46:04 51°21.447 3°3.918 244.4 7 239 13.2
2012-04-05 09:47:04 51°21.397 3°3.757 257.3 6.6 252 13.6
2012-04-05 09:48:03 51°21.385 3°3.583 269.3 6.7 265 13.6
2012-04-05 09:49:04 51°21.374 3°3.402 266.6 6.7 265 13.1
2012-04-05 09:50:03 51°21.359 3°3.228 263.7 6.8 259 13.4
2012-04-05 09:51:04 51°21.335 3°3.05 260.7 6.8 257 13.5
2012-04-05 09:52:03 51°21.313 3°2.878 262 6.7 254 13.6
2012-04-05 09:53:04 51°21.291 3°2.7 262.2 6.7 262 13.5
2012-04-05 09:54:04 51°21.27 3°2.525 262.1 6.8 263 13
2012-04-05 09:55:04 51°21.248 3°2.349 262.1 6.8 260 13.1
2012-04-05 09:56:04 51°21.227 3°2.175 262 6.7 261 13.2
2012-04-05 09:57:03 51°21.206 3°2.006 262.7 6.6 259 13
2012-04-05 09:58:04 51°21.187 3°1.831 263.3 6.6 257 13
2012-04-05 09:59:03 51°21.171 3°1.702 264.8 3.4 264 12.8
2012-04-05 10:00:04 51°21.164 3°1.636 268.6 1.8 259 13.5
2012-04-05 10:01:03 51°21.161 3°1.601 271.5 1.1 260 13.4
2012-04-05 10:02:04 51°21.161 3°1.579 275.9 0.7 285 13.2
2012-04-05 10:03:03 51°21.162 3°1.567 283.6 0.3 280 13.1
2012-04-05 10:04:04 51°21.166 3°1.566 290.2 0.4 9 13
2012-04-05 10:05:04 51°21.171 3°1.568 291.9 0.4 350 12.9
2012-04-05 10:06:03 51°21.176 3°1.571 299.6 0.2 48 13.4
2012-04-05 10:07:04 51°21.179 3°1.587 309 0.9 72 13.1
2012-04-05 10:08:03 51°21.18 3°1.608 313.7 0.9 86 13.6
2012-04-05 10:09:04 51°21.178 3°1.632 315.1 1 100 13.1
2012-04-05 10:10:03 51°21.173 3°1.658 312.2 1.1 109 13.7
2012-04-05 10:11:04 51°21.169 3°1.688 306.9 1.2 106 13.5
2012-04-05 10:12:03 51°21.164 3°1.72 301.6 1.4 100 13.3
2012-04-05 10:13:04 51°21.158 3°1.754 298.4 1.3 102 13.3
2012-04-05 10:14:04 51°21.153 3°1.788 297.6 1.2 113 13.5
2012-04-05 10:15:03 51°21.148 3°1.824 296.1 1.4 103 13.5
2012-04-05 10:16:04 51°21.144 3°1.862 294.6 1.4 111 13.3
2012-04-05 10:17:03 51°21.139 3°1.9 293.4 1.4 97 13.6
2012-04-05 10:18:04 51°21.135 3°1.938 289.7 1.5 95 13
2012-04-05 10:19:04 51°21.136 3°1.924 272.2 2.3 284 13.4
2012-04-05 10:20:04 51°21.146 3°1.785 268.5 7.4 272 13
2012-04-05 10:21:04 51°21.126 3°1.573 259.3 8.4 256 13.8
2012-04-05 10:22:05 51°21.111 3°1.347 270.7 8.4 278 13.8
2012-04-05 10:23:05 51°21.187 3°1.21 318.9 6.1 327 13.3
2012-04-05 10:24:04 51°21.244 3°1.102 301.4 5.3 311 13.7
2012-04-05 10:25:04 51°21.315 3°1.013 311.7 5.1 322 14
2012-04-05 10:26:04 51°21.364 3°0.973 332.6 1.9 12 14.2
2012-04-05 10:27:04 51°21.374 3°0.996 344.1 1 73 14.2
2012-04-05 10:28:04 51°21.375 3°1.02 326 1 83 14.2
2012-04-05 10:29:04 51°21.395 3°1.031 343.5 2.4 9 14.4
2012-04-05 10:30:04 51°21.442 3°1.094 44.3 5.6 57 14.3
2012-04-05 10:31:04 51°21.447 3°1.3 110.2 9.6 103 13.7
2012-04-05 10:32:04 51°21.439 3°1.582 84.6 11 86 13.6
2012-04-05 10:33:03 51°21.423 3°1.875 105.2 11.3 103 14.1
2012-04-05 10:34:04 51°21.392 3°2.177 100.6 11.4 100 13.8
2012-04-05 10:35:03 51°21.363 3°2.47 103 9.8 101 14.2
2012-04-05 10:36:04 51°21.35 3°2.664 97.3 5.6 93 14
2012-04-05 10:37:03 51°21.345 3°2.799 98.1 5 94 14.2
2012-04-05 10:38:04 51°21.336 3°2.924 106.1 3.9 102 14.7
2012-04-05 10:39:05 51°21.338 3°2.974 117.1 0.8 43 -999
2012-04-05 10:40:07 51°21.344 3°3 134.6 1.3 80 14.1
2012-04-05 10:41:07 51°21.346 3°3.038 135.1 2.2 103 14.6
2012-04-05 10:42:07 51°21.351 3°3.156 71.9 6.1 64 13.9
2012-04-05 10:43:07 51°21.458 3°3.246 2.1 8.6 13 13.6
2012-04-05 10:44:06 51°21.601 3°3.339 16.3 9.6 23 15.1
2012-04-05 10:45:07 51°21.75 3°3.439 12.2 9.4 19 14.3
2012-04-05 10:46:06 51°21.899 3°3.508 10.6 9.2 25 14.5
2012-04-05 10:47:06 51°21.987 3°3.616 32.4 4.3 49 14.8
2012-04-05 10:48:07 51°21.998 3°3.665 27.7 1.3 108 -999
2012-04-05 10:49:07 51°21.99 3°3.701 6.7 1.5 113 14.9
2012-04-05 10:50:07 51°21.982 3°3.739 346.2 1.7 106 15.5
2012-04-05 10:51:07 51°21.977 3°3.777 326.5 1.1 73 15.2
2012-04-05 10:52:07 51°21.988 3°3.758 273.2 4.4 277 14.8
2012-04-05 10:53:06 51°21.98 3°3.566 263.3 8.7 265 14.9
2012-04-05 10:54:06 51°21.932 3°3.343 248.2 9.2 247 14.8
2012-04-05 10:55:06 51°21.834 3°3.167 218.3 9.2 205 14.7
2012-04-05 10:56:06 51°21.68 3°3.222 153.5 10.7 143 14.5
2012-04-05 10:57:06 51°21.563 3°3.459 132.9 11.4 126 14.5
2012-04-05 10:58:06 51°21.461 3°3.728 125.8 11.9 118 14.3
2012-04-05 10:59:06 51°21.387 3°4.025 112.3 12.1 110 14.1
2012-04-05 11:00:05 51°21.334 3°4.335 111.1 12.5 104 14.3
2012-04-05 11:01:05 51°21.317 3°4.634 86.9 8.6 83 13.3
2012-04-05 11:02:05 51°21.34 3°4.799 89.8 5.1 86 13.5
2012-04-05 11:03:05 51°21.339 3°4.871 133.2 1.3 71 13.5
2012-04-05 11:04:05 51°21.343 3°4.908 149.6 1.3 91 13.9
2012-04-05 11:05:05 51°21.344 3°4.946 153.2 1.4 87 13.6
2012-04-05 11:06:05 51°21.342 3°4.986 147.4 2.3 106 13.4
2012-04-05 11:07:05 51°21.332 3°5.091 95.1 5.9 90 13.4
2012-04-05 11:08:05 51°21.344 3°5.318 89.8 10.9 89 13.9
2012-04-05 11:09:05 51°21.333 3°5.625 98.4 11.6 95 12.8
2012-04-05 11:10:05 51°21.32 3°5.941 98.8 12.1 93 13.1
2012-04-05 11:11:04 51°21.308 3°6.254 99.2 12.1 93 13.1
2012-04-05 11:12:04 51°21.295 3°6.551 100.5 9.1 93 13.1
2012-04-05 11:13:04 51°21.298 3°6.732 90.5 5.3 86 12.9
2012-04-05 11:14:04 51°21.312 3°6.849 78.4 3.3 77 12.8
2012-04-05 11:15:04 51°21.322 3°6.903 91.2 1.4 73 12.9
2012-04-05 11:16:07 51°21.327 3°6.942 116.9 1.4 80 -999
2012-04-05 11:17:07 51°21.33 3°6.981 134.8 1.7 96 12.4
2012-04-05 11:18:07 51°21.322 3°7.103 101.7 8.6 89 12.1
2012-04-05 11:19:07 51°21.326 3°7.385 95.9 11.5 89 12.3
2012-04-05 11:20:06 51°21.32 3°7.689 99.6 11.9 93 11.9
2012-04-05 11:21:06 51°21.31 3°7.998 99.4 11.5 95 11.6
2012-04-05 11:22:06 51°21.307 3°8.307 90.5 11.8 88 11.5
2012-04-05 11:23:06 51°21.311 3°8.595 98.1 8.5 89 11.2
2012-04-05 11:24:06 51°21.333 3°8.762 88.3 4.6 76 11.8
2012-04-05 11:25:06 51°21.344 3°8.811 117.1 0.9 40 12
2012-04-05 11:26:07 51°21.356 3°8.834 143.8 1.1 59 12.1
2012-04-05 11:27:07 51°21.364 3°8.861 150.4 0.9 72 11.8
2012-04-05 11:28:07 51°21.364 3°8.913 121.7 3.3 98 11.9
2012-04-05 11:29:06 51°21.389 3°9.024 51.6 5.4 45 12.4
2012-04-05 11:30:06 51°21.46 3°9.042 319.5 4.3 332 13.2
2012-04-05 11:31:06 51°21.508 3°8.88 276.1 9.5 277 12.1
2012-04-05 11:32:06 51°21.562 3°8.612 287 11.2 291 12.5
2012-04-05 11:33:06 51°21.634 3°8.34 287.1 11.2 291 13.3
2012-04-05 11:34:06 51°21.698 3°8.066 286.1 11.1 290 13.5
2012-04-05 11:35:06 51°21.771 3°7.798 288.1 11.1 294 14.5
2012-04-05 11:36:05 51°21.843 3°7.535 287.5 11 293 14.2
2012-04-05 11:37:05 51°21.903 3°7.261 283.4 10.8 286 14.9
2012-04-05 11:38:05 51°21.944 3°6.983 278.4 10.6 284 14.2
2012-04-05 11:39:05 51°22.001 3°6.776 313 5.4 328 15
2012-04-05 11:40:05 51°22.043 3°6.776 350.5 1.3 68 14.6
2012-04-05 11:41:07 51°22.022 3°6.813 339.2 3.2 141 -999
2012-04-05 11:42:07 51°22.001 3°6.869 317.7 1.1 90 14.9
2012-04-05 11:43:07 51°22.004 3°6.898 317 1.3 87 15.1
2012-04-05 11:44:07 51°22.005 3°6.931 306.4 1.4 78 14.8
2012-04-05 11:45:06 51°22.032 3°6.937 338.9 3.2 9 14.7
2012-04-05 11:46:06 51°22.086 3°7.002 53.1 4.9 61 15.5
2012-04-05 11:47:06 51°22.079 3°7.129 132.2 6.2 119 15.3
2012-04-05 11:48:06 51°22.001 3°7.318 128 9.6 120 15
2012-04-05 11:49:06 51°21.969 3°7.526 85.1 6.3 79 14.1
2012-04-05 11:50:06 51°22.024 3°7.62 9.3 3.5 25 15.2
2012-04-05 11:51:06 51°22.043 3°7.65 330.3 1.3 66 14.5
2012-04-05 11:52:07 51°22.052 3°7.677 309.5 1 70 -999
2012-04-05 11:53:07 51°22.058 3°7.7 303.2 0.9 66 15.1
2012-04-05 11:54:07 51°22.064 3°7.725 302.4 0.9 75 15.2
2012-04-05 11:55:07 51°22.067 3°7.753 305.4 1.7 92 15.5
2012-04-05 11:56:08 51°22.059 3°7.827 288 3.5 100 -999
2012-04-05 11:57:07 51°22.06 3°7.914 262.6 2 83 15
2012-04-05 11:58:07 51°22.046 3°7.928 194.6 2.3 160 14.9
2012-04-05 11:59:07 51°22.006 3°8.012 127.9 5.4 114 14.6
2012-04-05 12:00:07 51°22.001 3°8.157 73.3 5.2 73 14.3
2012-04-05 12:01:07 51°22.013 3°8.21 47 0.9 117 14.9
2012-04-05 12:02:07 51°22.01 3°8.229 61.2 0.6 97 14.6
2012-04-05 12:03:07 51°22.009 3°8.246 72.6 1 107 14.3
2012-04-05 12:04:07 51°22.009 3°8.322 106.4 5.2 95 14.8
2012-04-05 12:05:06 51°22.002 3°8.502 103.2 7.8 99 14.8
2012-04-05 12:06:06 51°21.991 3°8.695 96.6 5.7 88 15
2012-04-05 12:07:06 51°22.01 3°8.807 64 2.6 74 14.8
2012-04-05 12:08:07 51°22.011 3°8.834 61.1 0.6 90 -999
2012-04-05 12:09:07 51°22.011 3°8.849 68 0.6 112 15.1
2012-04-05 12:10:06 51°22.013 3°8.871 93.3 1.5 87 15.1
2012-04-05 12:11:05 51°22.005 3°8.953 113.9 4.6 102 14.9
2012-04-05 12:12:04 51°21.981 3°9.095 118.4 6 109 15.2
2012-04-05 12:13:03 51°21.956 3°9.251 98.5 6.1 87 15
2012-04-05 12:14:03 51°21.977 3°9.401 76.4 5.4 69 15.6
2012-04-05 12:15:04 51°22.012 3°9.493 51.3 2.2 61 15.7
2012-04-05 12:16:07 51°22.017 3°9.516 44.1 0.6 80 -999
2012-04-05 12:17:06 51°22.017 3°9.533 40.5 0.6 82 15.7
2012-04-05 12:18:05 51°22.015 3°9.548 26.5 0.4 82 16.1
2012-04-05 12:19:04 51°22.029 3°9.566 346.7 2 7 15.8
2012-04-05 12:20:04 51°22.06 3°9.501 276.3 5.7 279 15.5
2012-04-05 12:21:04 51°22.091 3°9.289 288.6 9.1 296 15.4
2012-04-05 12:22:03 51°22.178 3°9.083 300 9.6 305 15.8
2012-04-05 12:23:03 51°22.266 3°8.87 298.5 9.6 303 15.7
2012-04-05 12:24:03 51°22.352 3°8.655 299.6 9.6 303 15.4
2012-04-05 12:25:04 51°22.441 3°8.439 293.1 9 292 15.4
2012-04-05 12:26:04 51°22.509 3°8.23 314.2 9.3 325 15.4
2012-04-05 12:27:04 51°22.617 3°8.136 330.6 5.4 344 15.2
2012-04-05 12:28:03 51°22.681 3°8.157 21.2 2.5 39 15.5
2012-04-05 12:29:07 51°22.687 3°8.179 45.7 0.3 82 -999
2012-04-05 12:30:06 51°22.685 3°8.189 43.9 0.4 122 15.4
2012-04-05 12:31:05 51°22.694 3°8.21 16.5 2.1 32 15.7
2012-04-05 12:32:05 51°22.726 3°8.195 295.8 2.8 307 15.2
2012-04-05 12:33:03 51°22.757 3°8.064 280.5 6.9 281 15.5
2012-04-05 12:34:04 51°22.728 3°7.863 242.8 8.2 240 15.3
2012-04-05 12:35:03 51°22.667 3°7.664 248 8.6 245 15.8
2012-04-05 12:36:04 51°22.626 3°7.44 257.7 8.6 259 15.1
2012-04-05 12:37:04 51°22.607 3°7.212 263.5 8.7 266 14.9
2012-04-05 12:38:03 51°22.582 3°6.988 259 8.7 259 15.1
2012-04-05 12:39:03 51°22.567 3°6.757 266.5 8.6 268 15.2
2012-04-05 12:40:04 51°22.562 3°6.523 267.9 8.6 267 14.7
2012-04-05 12:41:04 51°22.558 3°6.294 267.9 8.6 270 15
2012-04-05 12:42:04 51°22.559 3°6.063 269.9 8.7 269 15
2012-04-05 12:43:04 51°22.568 3°5.833 272.4 8.8 276 15
2012-04-05 12:44:03 51°22.581 3°5.651 275.2 5.4 280 14.5
2012-04-05 12:45:04 51°22.63 3°5.573 340.7 4.4 354 14.3
2012-04-05 12:46:03 51°22.68 3°5.609 41.5 1.3 54 14.8
2012-04-05 12:47:07 51°22.681 3°5.622 65.9 0.5 116 -999
2012-04-05 12:48:06 51°22.679 3°5.629 87.2 0.6 139 14.2
2012-04-05 12:49:05 51°22.682 3°5.68 75.6 3.6 67 14.6
2012-04-05 12:50:05 51°22.743 3°5.737 351.1 4.9 354 14.6
2012-04-05 12:51:04 51°22.799 3°5.636 284.7 6.6 286 14.3
2012-04-05 12:52:04 51°22.833 3°5.427 278 8.9 278 14.4
2012-04-05 12:53:04 51°22.835 3°5.184 265.7 9.3 267 14.4
2012-04-05 12:54:04 51°22.829 3°4.923 267.6 9.9 270 12.8
2012-04-05 12:55:03 51°22.83 3°4.662 266.5 10.1 270 14.4
2012-04-05 12:56:04 51°22.827 3°4.39 266.7 9.9 264 12.8
2012-04-05 12:57:03 51°22.834 3°4.128 271.4 10.2 275 14.3
2012-04-05 12:58:04 51°22.85 3°3.855 271 10.2 276 13.2
2012-04-05 12:59:04 51°22.852 3°3.59 262 9.9 267 13.3
2012-04-05 13:00:04 51°22.837 3°3.326 266.2 10.1 269 14.1
2012-04-05 13:01:04 51°22.842 3°3.058 270.8 9.9 270 12.7
2012-04-05 13:02:04 51°22.83 3°2.824 240.9 5.8 229 14.3
2012-04-05 13:03:04 51°22.756 3°2.778 205.1 4.9 205 14.6
2012-04-05 13:04:04 51°22.688 3°2.751 175.5 4.1 158 14.7
2012-04-05 13:05:04 51°22.66 3°2.851 98.8 4.3 86 14
2012-04-05 13:06:04 51°22.668 3°2.919 82.6 0.8 108 13.8
2012-04-05 13:07:07 51°22.671 3°2.928 110.2 0.3 105 -999
2012-04-05 13:08:06 51°22.675 3°2.94 128.6 0.5 64 13
2012-04-05 13:09:05 51°22.677 3°2.953 143.9 0.7 89 13.5
2012-04-05 13:10:05 51°22.674 3°2.975 145.9 1 103 13.1
2012-04-05 13:11:04 51°22.67 3°3.001 145.7 1.3 99 13.1
2012-04-05 13:12:04 51°22.65 3°3.036 167.2 2.8 155 13.4
2012-04-05 13:13:04 51°22.605 3°2.982 242.5 6 240 13.4
2012-04-05 13:14:04 51°22.502 3°2.798 222.7 11.2 227 13.8
2012-04-05 13:15:03 51°22.371 3°2.592 229.5 11.2 233 13.2
2012-04-05 13:16:04 51°22.27 3°2.337 241.1 11.2 237 13.3
2012-04-05 13:17:04 51°22.185 3°2.073 243.7 11.1 242 13.1
2012-04-05 13:18:04 51°22.094 3°1.815 240.1 11.2 235 13.3
2012-04-05 13:19:04 51°21.999 3°1.559 241.4 11.1 244 13.5
2012-04-05 13:20:03 51°21.907 3°1.308 239.5 11 234 13.6
2012-04-05 13:21:04 51°21.819 3°1.041 244.6 11.3 247 12.7
2012-04-05 13:22:04 51°21.726 3°0.784 238.8 10.9 233 13.4
2012-04-05 13:23:04 51°21.63 3°0.53 242.3 11.1 234 13.4
2012-04-05 13:24:03 51°21.539 3°0.273 242.2 11.2 242 13.1
2012-04-05 13:25:04 51°21.449 3°0.006 240.3 11.2 240 13.1
2012-04-05 13:26:04 51°21.355 2°59.748 239.4 11.2 232 13.1
2012-04-05 13:27:04 51°21.262 2°59.489 241.7 11.1 241 13.3
2012-04-05 13:28:04 51°21.17 2°59.226 240 11.4 242 13.2
2012-04-05 13:29:04 51°21.076 2°58.966 240.6 11.5 238 13.7
2012-04-05 13:30:04 51°20.982 2°58.698 241 11.4 242 13.5
2012-04-05 13:31:03 51°20.889 2°58.439 240.9 12 236 14.3
2012-04-05 13:32:04 51°20.792 2°58.175 238.2 11.7 236 14
2012-04-05 13:33:04 51°20.692 2°57.915 239.3 11.6 238 13.9
2012-04-05 13:34:04 51°20.599 2°57.643 242.5 11.7 242 14.3
2012-04-05 13:35:04 51°20.487 2°57.395 229.5 11.7 224 13.9
2012-04-05 13:36:04 51°20.355 2°57.172 228.5 11.6 225 14.2
2012-04-05 13:37:04 51°20.22 2°56.954 226.3 11.7 222 13.9
2012-04-05 13:38:04 51°20.09 2°56.732 227.5 11.6 224 13.8
2012-04-05 13:39:04 51°19.961 2°56.502 232.3 11.1 225 13.4
2012-04-05 13:40:03 51°19.831 2°56.282 227.3 11.7 228 13.9
2012-04-05 13:41:04 51°19.706 2°56.043 230.2 11.5 228 13.4
2012-04-05 13:42:03 51°19.579 2°55.814 227.4 11.8 231 13.6
2012-04-05 13:43:04 51°19.45 2°55.578 230.9 11.7 228 13.6
2012-04-05 13:44:04 51°19.324 2°55.343 229.5 11.4 231 13.1
2012-04-05 13:45:04 51°19.198 2°55.113 228 11.7 225 13.4
2012-04-05 13:46:04 51°19.069 2°54.886 227.3 11.5 222 13.3
2012-04-05 13:47:04 51°18.939 2°54.65 229.3 12.1 232 12.8
2012-04-05 13:48:04 51°18.813 2°54.411 230.4 11.6 225 12.6
2012-04-05 13:49:04 51°18.682 2°54.173 232.2 11.7 233 12.5
2012-04-05 13:50:03 51°18.546 2°53.95 223 11.4 222 12.4
2012-04-05 13:51:04 51°18.391 2°53.758 218.6 11.3 216 12.2
2012-04-05 13:52:04 51°18.238 2°53.56 221.6 11.4 218 12.1
2012-04-05 13:53:04 51°18.087 2°53.362 220.5 11.8 219 11.8
2012-04-05 13:54:04 51°17.931 2°53.165 216.6 12.4 220 12
2012-04-05 13:55:04 51°17.778 2°52.968 218.6 11.9 216 11.8
2012-04-05 13:56:03 51°17.621 2°52.782 219.5 11.7 220 11.5
2012-04-05 13:57:04 51°17.451 2°52.609 210.5 11.7 210 11.6
2012-04-05 13:58:03 51°17.274 2°52.49 198.8 11 195 11.7
2012-04-05 13:59:04 51°17.081 2°52.439 182.9 12.3 178 11.4
2012-04-05 14:00:04 51°16.89 2°52.498 166.1 11.3 170 11.4
2012-04-05 14:01:03 51°16.71 2°52.593 162.8 11.5 157 11.7
2012-04-05 14:02:04 51°16.525 2°52.715 154.6 11.6 152 13
2012-04-05 14:03:04 51°16.351 2°52.873 150.8 12.4 149 14.2
2012-04-05 14:04:04 51°16.177 2°53.028 152.5 11.8 151 14.1
2012-04-05 14:05:03 51°16.014 2°53.201 147.6 12.2 148 13.9
2012-04-05 14:06:04 51°15.849 2°53.388 145.2 11.9 144 13.5
2012-04-05 14:07:03 51°15.693 2°53.583 142.8 12 144 13.4
2012-04-05 14:08:03 51°15.532 2°53.775 141.5 11.8 141 12.7
2012-04-05 14:09:03 51°15.37 2°53.964 143.8 12.3 141 12.5
2012-04-05 14:10:03 51°15.215 2°54.162 140.5 11.4 144 12.4
2012-04-05 14:11:03 51°15.056 2°54.352 145 11.5 143 12.2
2012-04-05 14:12:04 51°14.902 2°54.554 141.2 12.1 136 12.8
2012-04-05 14:13:05 51°14.746 2°54.755 141.8 11.4 140 12.5
2012-04-05 14:14:04 51°14.587 2°54.938 144.8 12.4 144 13
2012-04-05 14:15:07 51°14.42 2°55.128 141.1 11.1 146 11.1
2012-04-05 14:16:07 51°14.272 2°55.282 149.1 10 150 10.8
2012-04-05 14:17:08 51°14.133 2°55.396 154.7 8.6 157 -999
2012-04-05 14:18:07 51°14.016 2°55.481 153.4 7.3 154 11.5
2012-04-05 14:19:07 51°13.907 2°55.562 155 7.1 156 11.5
2012-04-05 14:20:08 51°13.818 2°55.637 149.1 5.1 148 -999
2012-04-05 14:21:07 51°13.755 2°55.719 133.6 5 134 11.7
2012-04-05 14:22:07 51°13.703 2°55.815 128.3 4.5 128 11.4
2012-04-05 14:23:07 51°13.661 2°55.908 121 4.1 120 -999
2012-04-05 14:24:07 51°13.641 2°55.993 104.8 2.7 106 -999
2012-04-05 14:25:07 51°13.633 2°56.015 126.4 0.1 219 -999